createdAt,value
2018-10-11T00:01:26.929Z,15.60
2018-10-11T00:03:55.558Z,15.50
2018-10-11T00:06:24.191Z,15.30
2018-10-11T00:08:52.893Z,15.50
2018-10-11T00:11:21.477Z,15.60
2018-10-11T00:13:52.087Z,15.50
2018-10-11T00:16:21.597Z,15.70
2018-10-11T00:18:53.371Z,15.70
2018-10-11T00:21:21.964Z,15.70
2018-10-11T00:23:52.674Z,15.70
2018-10-11T00:26:22.569Z,15.60
2018-10-11T00:28:52.337Z,15.70
2018-10-11T00:31:20.989Z,15.60
2018-10-11T00:33:51.561Z,15.60
2018-10-11T00:36:20.125Z,15.60
2018-10-11T00:38:48.754Z,15.50
2018-10-11T00:41:17.469Z,15.50
2018-10-11T00:43:46.060Z,15.60
2018-10-11T00:46:15.701Z,15.60
2018-10-11T00:48:46.389Z,15.50
2018-10-11T00:51:18.663Z,15.30
2018-10-11T00:53:54.374Z,15.50
2018-10-11T00:56:23.005Z,15.50
2018-10-11T00:58:51.583Z,15.50
2018-10-11T01:01:20.245Z,15.50
2018-10-11T01:03:55.040Z,15.60
2018-10-11T01:06:23.709Z,15.40
2018-10-11T01:08:52.256Z,15.30
2018-10-11T01:11:20.847Z,15.30
2018-10-11T01:13:50.326Z,15.20
2018-10-11T01:16:18.879Z,15.20
2018-10-11T01:18:47.446Z,15.00
2018-10-11T01:21:17.918Z,14.90
2018-10-11T01:23:47.553Z,14.70
2018-10-11T01:26:17.205Z,14.80
2018-10-11T01:28:45.810Z,15.10
2018-10-11T01:31:21.006Z,15.20
2018-10-11T01:33:51.411Z,15.30
2018-10-11T01:36:20.481Z,15.30
2018-10-11T01:38:52.975Z,15.30
2018-10-11T01:41:21.813Z,15.30
2018-10-11T01:43:50.482Z,15.30
2018-10-11T01:46:20.055Z,15.30
2018-10-11T01:48:48.695Z,15.30
2018-10-11T01:51:17.531Z,15.30
2018-10-11T01:53:46.153Z,15.40
2018-10-11T01:56:17.921Z,15.40
2018-10-11T01:58:47.614Z,15.40
2018-10-11T02:01:18.261Z,15.30
2018-10-11T02:03:46.942Z,15.30
2018-10-11T02:06:15.554Z,15.30
2018-10-11T02:08:44.119Z,15.20
2018-10-11T02:11:12.656Z,15.10
2018-10-11T02:13:42.251Z,15.20
2018-10-11T02:16:12.967Z,15.20
2018-10-11T02:18:41.536Z,15.20
2018-10-11T02:21:10.146Z,15.20
2018-10-11T02:23:38.707Z,15.30
2018-10-11T02:26:07.356Z,15.40
2018-10-11T02:28:35.894Z,15.50
2018-10-11T02:31:04.364Z,15.50
2018-10-11T02:33:35.143Z,15.30
2018-10-11T02:36:03.704Z,15.30
2018-10-11T02:38:33.270Z,15.40
2018-10-11T02:41:01.890Z,15.40
2018-10-11T02:43:31.492Z,15.30
2018-10-11T02:46:00.059Z,15.20
2018-10-11T02:48:28.695Z,15.20
2018-10-11T02:50:57.235Z,15.20
2018-10-11T02:53:27.830Z,15.10
2018-10-11T02:55:56.792Z,14.90
2018-10-11T02:58:40.492Z,14.70
2018-10-11T03:01:09.464Z,14.50
2018-10-11T03:03:48.092Z,14.30
2018-10-11T03:06:17.724Z,14.10
2018-10-11T03:08:48.002Z,14.00
2018-10-11T03:11:16.665Z,14.00
2018-10-11T03:13:51.055Z,13.90
2018-10-11T03:16:25.799Z,13.90
2018-10-11T03:18:55.513Z,13.90
2018-10-11T03:21:24.080Z,13.90
2018-10-11T03:23:52.683Z,14.00
2018-10-11T03:26:22.267Z,13.90
2018-10-11T03:28:50.807Z,13.90
2018-10-11T03:31:20.436Z,13.90
2018-10-11T03:33:49.982Z,13.80
2018-10-11T03:36:19.707Z,13.70
2018-10-11T03:38:48.385Z,13.80
2018-10-11T03:41:20.347Z,13.80
2018-10-11T03:44:04.619Z,13.70
2018-10-11T03:46:33.307Z,13.60
2018-10-11T03:49:01.827Z,13.50
2018-10-11T03:51:30.492Z,13.70
2018-10-11T03:53:59.483Z,14.00
2018-10-11T03:56:28.368Z,14.20
2018-10-11T03:58:57.306Z,14.40
2018-10-11T04:01:26.457Z,14.50
2018-10-11T04:04:00.135Z,14.70
2018-10-11T04:06:28.904Z,14.70
2018-10-11T04:08:57.631Z,14.60
2018-10-11T04:11:26.324Z,14.40
2018-10-11T04:13:55.277Z,14.20
2018-10-11T04:16:23.892Z,13.90
2018-10-11T04:18:52.510Z,13.70
2018-10-11T04:21:23.167Z,13.60
2018-10-11T04:23:51.771Z,13.50
2018-10-11T04:26:20.355Z,13.40
2018-10-11T04:28:49.924Z,13.40
2018-10-11T04:31:18.528Z,13.40
2018-10-11T04:33:47.095Z,13.40
2018-10-11T04:36:20.061Z,13.30
2018-10-11T04:38:49.687Z,13.30
2018-10-11T04:41:19.308Z,13.20
2018-10-11T04:43:48.858Z,13.10
2018-10-11T04:46:18.406Z,13.00
2018-10-11T04:48:50.976Z,12.90
2018-10-11T04:51:24.721Z,12.80
2018-10-11T04:53:55.830Z,12.80
2018-10-11T04:56:27.051Z,12.80
2018-10-11T04:58:57.390Z,12.80
2018-10-11T05:01:29.361Z,12.80
2018-10-11T05:03:59.886Z,12.70
2018-10-11T05:06:32.768Z,12.80
2018-10-11T05:09:03.803Z,12.80
2018-10-11T05:11:33.666Z,12.80
2018-10-11T05:14:02.347Z,12.70
2018-10-11T05:16:31.973Z,12.70
2018-10-11T05:19:03.248Z,12.70
2018-10-11T05:21:33.058Z,12.70
2018-10-11T05:24:03.060Z,12.80
2018-10-11T05:26:31.608Z,12.90
2018-10-11T05:29:00.244Z,13.00
2018-10-11T05:31:30.208Z,13.10
2018-10-11T05:34:00.820Z,13.20
2018-10-11T05:36:29.322Z,13.10
2018-10-11T05:38:58.827Z,13.10
2018-10-11T05:41:30.356Z,13.20
2018-10-11T05:44:04.405Z,13.30
2018-10-11T05:46:34.904Z,13.40
2018-10-11T05:49:16.683Z,13.50
2018-10-11T05:51:47.922Z,13.50
2018-10-11T05:54:18.308Z,13.50
2018-10-11T05:56:47.778Z,13.40
2018-10-11T05:59:24.554Z,13.30
2018-10-11T06:01:55.903Z,13.20
2018-10-11T06:04:29.641Z,13.20
2018-10-11T06:07:00.454Z,13.30
2018-10-11T06:09:29.657Z,13.30
2018-10-11T06:11:58.780Z,13.40
2018-10-11T06:14:28.177Z,13.40
2018-10-11T06:17:03.803Z,13.50
2018-10-11T06:19:32.720Z,13.60
2018-10-11T06:22:07.221Z,13.60
2018-10-11T06:24:36.173Z,13.80
2018-10-11T06:27:05.147Z,14.20
2018-10-11T06:29:35.080Z,14.40
2018-10-11T06:32:03.727Z,14.70
2018-10-11T06:34:33.728Z,14.80
2018-10-11T06:37:06.324Z,14.80
2018-10-11T06:39:43.428Z,14.90
2018-10-11T06:42:17.402Z,14.70
2018-10-11T06:44:45.995Z,14.50
2018-10-11T06:47:16.881Z,14.30
2018-10-11T06:49:45.630Z,14.10
2018-10-11T06:52:16.395Z,14.00
2018-10-11T06:54:45.096Z,13.90
2018-10-11T06:57:13.611Z,13.80
2018-10-11T06:59:42.159Z,13.80
2018-10-11T07:02:10.666Z,13.80
2018-10-11T07:04:39.231Z,13.90
2018-10-11T07:07:07.879Z,14.10
2018-10-11T07:09:37.485Z,14.30
2018-10-11T07:12:07.135Z,14.50
2018-10-11T07:14:36.685Z,14.80
2018-10-11T07:17:05.233Z,15.00
2018-10-11T07:19:34.852Z,15.20
2018-10-11T07:22:04.999Z,15.40
2018-10-11T07:24:34.537Z,15.50
2018-10-11T07:27:05.389Z,15.60
2018-10-11T07:29:34.067Z,15.70
2018-10-11T07:32:02.660Z,15.80
2018-10-11T07:34:32.347Z,16.00
2018-10-11T07:37:00.896Z,16.00
2018-10-11T07:39:30.417Z,15.90
2018-10-11T07:42:02.405Z,16.20
2018-10-11T07:44:31.175Z,16.40
2018-10-11T07:47:00.735Z,16.50
2018-10-11T07:49:31.443Z,16.50
2018-10-11T07:52:02.007Z,16.60
2018-10-11T07:54:31.608Z,16.90
2018-10-11T07:57:00.575Z,17.00
2018-10-11T07:59:34.184Z,17.10
2018-10-11T08:02:09.369Z,17.10
2018-10-11T08:04:37.855Z,17.20
2018-10-11T08:07:06.646Z,17.30
2018-10-11T08:09:40.500Z,17.40
2018-10-11T08:12:11.111Z,17.50
2018-10-11T08:14:39.615Z,17.50
2018-10-11T08:17:09.570Z,17.60
2018-10-11T08:19:37.746Z,17.60
2018-10-11T08:22:12.033Z,17.70
2018-10-11T08:24:40.619Z,17.70
2018-10-11T08:27:09.235Z,17.90
2018-10-11T08:29:48.689Z,18.00
2018-10-11T08:32:17.284Z,18.00
2018-10-11T08:34:45.783Z,18.00
2018-10-11T08:37:15.415Z,18.10
2018-10-11T08:39:43.898Z,18.20
2018-10-11T08:42:17.801Z,18.30
2018-10-11T08:44:50.107Z,18.30
2018-10-11T08:47:18.626Z,18.40
2018-10-11T08:49:47.176Z,18.40
2018-10-11T08:52:15.847Z,18.50
2018-10-11T08:54:49.549Z,18.50
2018-10-11T08:57:22.252Z,18.70
2018-10-11T08:59:54.278Z,18.80
2018-10-11T09:02:28.156Z,18.90
2018-10-11T09:05:02.161Z,18.90
2018-10-11T09:07:30.751Z,18.90
2018-10-11T09:09:59.463Z,19.10
2018-10-11T09:12:31.466Z,19.10
2018-10-11T09:15:03.358Z,19.20
2018-10-11T09:17:31.864Z,19.30
2018-10-11T09:20:06.027Z,19.30
2018-10-11T09:22:34.818Z,19.30
2018-10-11T09:25:03.648Z,19.50
2018-10-11T09:27:34.119Z,19.60
2018-10-11T09:30:03.627Z,19.60
2018-10-11T09:32:33.208Z,19.70
2018-10-11T09:35:01.946Z,19.80
2018-10-11T09:37:41.358Z,19.90
2018-10-11T09:40:10.683Z,19.90
2018-10-11T09:42:39.275Z,20.00
2018-10-11T09:45:09.821Z,20.00
2018-10-11T09:47:39.759Z,20.10
2018-10-11T09:50:08.423Z,20.20
2018-10-11T09:52:36.983Z,20.30
2018-10-11T09:55:05.768Z,20.30
2018-10-11T09:57:35.410Z,20.40
2018-10-11T10:00:08.759Z,20.50
2018-10-11T10:02:50.683Z,20.60
2018-10-11T10:05:19.267Z,20.90
2018-10-11T10:07:48.783Z,21.20
2018-10-11T10:10:17.719Z,21.80
2018-10-11T10:12:48.264Z,22.70
2018-10-11T10:15:16.835Z,23.30
2018-10-11T10:17:47.350Z,23.50
2018-10-11T10:20:15.971Z,23.80
2018-10-11T10:22:46.914Z,24.10
2018-10-11T10:25:17.651Z,24.30
2018-10-11T10:27:46.216Z,24.50
2018-10-11T10:30:23.636Z,24.20
2018-10-11T10:32:54.259Z,24.50
2018-10-11T10:35:24.787Z,25.20
2018-10-11T10:37:53.398Z,25.80
2018-10-11T10:40:23.028Z,25.70
2018-10-11T10:42:52.594Z,25.60
2018-10-11T10:45:21.191Z,24.90
2018-10-11T10:47:49.849Z,24.70
2018-10-11T10:50:19.595Z,25.10
2018-10-11T10:52:55.626Z,25.40
2018-10-11T10:55:25.285Z,25.90
2018-10-11T10:57:58.810Z,27.00
2018-10-11T11:00:27.589Z,27.30
2018-10-11T11:02:56.235Z,27.00
2018-10-11T11:05:24.839Z,27.10
2018-10-11T11:07:54.116Z,26.30
2018-10-11T11:10:27.361Z,26.20
2018-10-11T11:12:57.289Z,26.30
2018-10-11T11:15:25.937Z,27.10
2018-10-11T11:17:55.468Z,27.20
2018-10-11T11:20:23.998Z,27.80
2018-10-11T11:22:57.295Z,27.70
2018-10-11T11:25:26.955Z,27.50
2018-10-11T11:27:55.463Z,28.00
2018-10-11T11:30:27.198Z,28.20
2018-10-11T11:32:56.316Z,28.90
2018-10-11T11:35:24.883Z,29.10
2018-10-11T11:37:59.223Z,30.50
2018-10-11T11:40:31.280Z,29.60
2018-10-11T11:43:00.887Z,30.20
2018-10-11T11:45:29.476Z,30.20
2018-10-11T11:47:59.139Z,31.40
2018-10-11T11:50:27.801Z,31.80
2018-10-11T11:52:56.260Z,31.50
2018-10-11T11:55:25.792Z,32.00
2018-10-11T11:58:00.267Z,32.20
2018-10-11T12:00:28.911Z,32.80
2018-10-11T12:03:02.037Z,33.50
2018-10-11T12:05:31.275Z,34.20
2018-10-11T12:08:01.824Z,34.60
2018-10-11T12:10:31.483Z,33.50
2018-10-11T12:13:10.158Z,33.60
2018-10-11T12:15:40.753Z,33.20
2018-10-11T12:18:09.699Z,32.40
2018-10-11T12:20:39.522Z,31.50
2018-10-11T12:23:10.093Z,30.60
2018-10-11T12:25:40.669Z,29.80
2018-10-11T12:28:09.218Z,29.80
2018-10-11T12:30:40.174Z,31.00
2018-10-11T12:33:10.882Z,31.80
2018-10-11T12:35:40.831Z,33.20
2018-10-11T12:38:09.432Z,33.20
2018-10-11T12:40:38.161Z,33.70
2018-10-11T12:43:06.799Z,34.40
2018-10-11T12:45:45.700Z,33.90
2018-10-11T12:48:15.300Z,32.70
2018-10-11T12:50:43.883Z,31.90
2018-10-11T12:53:19.642Z,33.50
2018-10-11T12:55:48.281Z,35.80
2018-10-11T12:58:22.826Z,37.30
2018-10-11T13:00:51.471Z,38.30
2018-10-11T13:03:20.095Z,37.50
2018-10-11T13:05:48.672Z,36.20
2018-10-11T13:08:31.091Z,36.40
2018-10-11T13:10:59.691Z,37.40
2018-10-11T13:13:33.987Z,37.70
2018-10-11T13:16:06.384Z,37.50
2018-10-11T13:18:35.288Z,36.50
2018-10-11T13:21:03.934Z,35.00
2018-10-11T13:23:32.492Z,33.50
2018-10-11T13:26:03.063Z,33.90
2018-10-11T13:28:32.651Z,35.10
2018-10-11T13:31:01.249Z,35.10
2018-10-11T13:33:29.794Z,34.20
2018-10-11T13:35:58.381Z,33.00
2018-10-11T13:38:28.156Z,33.60
2018-10-11T13:41:05.916Z,33.70
2018-10-11T13:43:35.781Z,33.10
2018-10-11T13:46:04.442Z,32.90
2018-10-11T13:48:38.241Z,32.80
2018-10-11T13:51:06.995Z,31.80
2018-10-11T13:53:37.959Z,30.10
2018-10-11T13:56:07.761Z,29.30
2018-10-11T13:58:36.296Z,28.80
2018-10-11T14:01:05.027Z,28.20
2018-10-11T14:03:33.595Z,27.60
2018-10-11T14:06:02.216Z,27.20
2018-10-11T14:08:30.807Z,27.00
2018-10-11T14:11:01.068Z,26.80
2018-10-11T14:13:31.397Z,26.80
2018-10-11T14:16:01.674Z,26.60
2018-10-11T14:18:31.535Z,26.40
2018-10-11T14:21:00.278Z,26.40
2018-10-11T14:23:29.034Z,26.30
2018-10-11T14:28:39.345Z,26.70
2018-10-11T14:31:07.943Z,27.20
2018-10-11T14:33:38.669Z,28.60
2018-10-11T14:36:11.894Z,29.70
2018-10-11T14:38:44.564Z,30.20
2018-10-11T14:41:13.231Z,29.70
2018-10-11T14:43:42.400Z,29.30
2018-10-11T14:46:20.795Z,28.90
2018-10-11T14:48:49.649Z,28.30
2018-10-11T14:51:20.111Z,27.30
2018-10-11T14:53:55.559Z,26.00
2018-10-11T14:56:23.650Z,25.40
2018-10-11T14:58:53.983Z,24.80
2018-10-11T15:01:22.527Z,24.60
2018-10-11T15:03:51.099Z,24.50
2018-10-11T15:06:25.906Z,24.50
2018-10-11T15:08:54.604Z,24.50
2018-10-11T15:11:25.609Z,24.60
2018-10-11T15:13:54.089Z,24.70
2018-10-11T15:16:22.781Z,24.60
2018-10-11T15:18:52.350Z,24.50
2018-10-11T15:21:22.152Z,24.40
2018-10-11T15:23:51.073Z,24.50
2018-10-11T15:26:20.835Z,24.50
2018-10-11T15:28:53.344Z,24.50
2018-10-11T15:31:27.509Z,24.50
2018-10-11T15:33:56.003Z,24.70
2018-10-11T15:36:24.571Z,25.00
2018-10-11T15:38:53.351Z,25.00
2018-10-11T15:41:23.551Z,24.60
2018-10-11T15:44:11.254Z,24.20
2018-10-11T15:46:39.888Z,23.90
2018-10-11T15:49:09.955Z,23.80
2018-10-11T15:51:38.654Z,23.50
2018-10-11T15:54:07.735Z,23.20
2018-10-11T15:56:36.446Z,23.00
2018-10-11T15:59:04.939Z,22.80
2018-10-11T16:01:33.451Z,22.70
2018-10-11T16:04:01.964Z,22.40
2018-10-11T16:06:30.590Z,22.40
2018-10-11T16:09:00.241Z,22.30
2018-10-11T16:11:28.855Z,22.20
2018-10-11T16:13:58.056Z,22.30
2018-10-11T16:16:26.571Z,22.40
2018-10-11T16:18:58.175Z,22.70
2018-10-11T16:21:27.691Z,22.80
2018-10-11T16:23:58.212Z,22.80
2018-10-11T16:26:26.791Z,22.70
2018-10-11T16:28:56.307Z,22.50
2018-10-11T16:31:25.949Z,22.30
2018-10-11T16:33:54.502Z,22.20
2018-10-11T16:36:23.115Z,22.10
2018-10-11T16:38:51.588Z,22.00
2018-10-11T16:41:20.127Z,21.90
2018-10-11T16:43:48.655Z,21.70
2018-10-11T16:46:17.692Z,21.60
2018-10-11T16:48:48.254Z,21.50
2018-10-11T16:51:16.835Z,21.40
2018-10-11T16:53:47.414Z,21.30
2018-10-11T16:56:16.049Z,21.10
2018-10-11T16:58:44.553Z,21.10
2018-10-11T17:01:17.984Z,21.00
2018-10-11T17:03:46.504Z,20.90
2018-10-11T17:06:16.039Z,20.80
2018-10-11T17:08:44.599Z,20.80
2018-10-11T17:11:13.090Z,20.70
2018-10-11T17:13:43.634Z,20.60
2018-10-11T17:16:13.164Z,20.50
2018-10-11T17:18:43.771Z,20.40
2018-10-11T17:21:13.328Z,20.40
2018-10-11T17:23:41.834Z,20.40
2018-10-11T17:26:10.436Z,20.30
2018-10-11T17:28:39.034Z,20.30
2018-10-11T17:31:08.007Z,20.40
2018-10-11T17:33:37.652Z,20.30
2018-10-11T17:36:12.522Z,20.30
2018-10-11T17:38:46.904Z,20.30
2018-10-11T17:41:15.387Z,20.30
2018-10-11T17:43:44.947Z,20.30
2018-10-11T17:46:13.511Z,20.30
2018-10-11T17:48:46.524Z,20.20
2018-10-11T17:51:19.066Z,20.10
2018-10-11T17:53:48.600Z,20.10
2018-10-11T17:56:29.795Z,20.20
2018-10-11T17:58:58.335Z,20.20
2018-10-11T18:01:26.931Z,20.20
2018-10-11T18:03:58.483Z,20.30
2018-10-11T18:06:30.547Z,20.30
2018-10-11T18:09:05.025Z,20.30
2018-10-11T18:11:33.604Z,20.40
2018-10-11T18:14:02.279Z,20.30
2018-10-11T18:16:30.791Z,20.30
2018-10-11T18:18:59.293Z,20.20
2018-10-11T18:21:28.900Z,20.10
2018-10-11T18:23:59.531Z,20.10
2018-10-11T18:26:28.044Z,20.00
2018-10-11T18:28:58.620Z,20.00
2018-10-11T18:31:27.267Z,19.90
2018-10-11T18:33:55.880Z,19.90
2018-10-11T18:36:24.499Z,20.00
2018-10-11T18:39:00.564Z,19.90
2018-10-11T18:41:29.243Z,19.80
2018-10-11T18:43:59.139Z,19.70
2018-10-11T18:46:29.775Z,19.60
2018-10-11T18:48:59.343Z,19.50
2018-10-11T18:51:33.622Z,19.50
2018-10-11T18:54:02.343Z,19.50
2018-10-11T18:56:34.095Z,19.50
2018-10-11T18:59:08.550Z,19.40
2018-10-11T19:01:37.048Z,19.40
2018-10-11T19:04:10.352Z,19.40
2018-10-11T19:06:39.663Z,19.30
2018-10-11T19:09:10.250Z,19.20
2018-10-11T19:11:39.128Z,19.20
2018-10-11T19:14:10.408Z,19.20
2018-10-11T19:16:39.123Z,19.20
2018-10-11T19:19:07.698Z,19.10
2018-10-11T19:21:37.371Z,19.10
2018-10-11T19:24:05.955Z,18.90
2018-10-11T19:26:34.510Z,18.90
2018-10-11T19:29:03.070Z,18.80
2018-10-11T19:31:31.631Z,18.70
2018-10-11T19:34:03.676Z,18.60
2018-10-11T19:36:34.234Z,18.50
2018-10-11T19:39:03.386Z,18.50
2018-10-11T19:41:33.987Z,18.50
2018-10-11T19:44:05.073Z,18.40
2018-10-11T19:46:33.639Z,18.30
2018-10-11T19:49:03.119Z,18.20
2018-10-11T19:51:31.623Z,18.20
2018-10-11T19:54:04.633Z,18.20
2018-10-11T19:56:33.229Z,18.20
2018-10-11T19:59:01.862Z,18.20
2018-10-11T20:01:30.660Z,18.10
2018-10-11T20:03:59.219Z,18.20
2018-10-11T20:06:29.971Z,18.20
2018-10-11T20:08:58.584Z,18.10
2018-10-11T20:11:28.129Z,18.00
2018-10-11T20:13:56.685Z,18.00
2018-10-11T20:16:25.238Z,18.00
2018-10-11T20:18:54.356Z,18.00
2018-10-11T20:21:22.907Z,18.10
2018-10-11T20:23:51.431Z,18.20
2018-10-11T20:26:19.993Z,18.20
2018-10-11T20:28:48.621Z,18.20
2018-10-11T20:31:17.470Z,18.20
2018-10-11T20:33:46.975Z,18.20
2018-10-11T20:36:15.536Z,18.30
2018-10-11T20:38:45.416Z,18.30
2018-10-11T20:41:14.943Z,18.30
2018-10-11T20:43:43.574Z,18.30
2018-10-11T20:46:13.143Z,18.20
2018-10-11T20:48:41.679Z,18.20
2018-10-11T20:51:11.003Z,18.10
2018-10-11T20:53:39.530Z,18.00
2018-10-11T20:56:13.783Z,17.90
2018-10-11T20:58:42.560Z,17.90
2018-10-11T21:01:11.168Z,17.90
2018-10-11T21:03:39.748Z,17.90
2018-10-11T21:06:13.026Z,17.90
2018-10-11T21:08:41.587Z,17.90
2018-10-11T21:11:10.234Z,18.00
2018-10-11T21:13:38.720Z,18.10
2018-10-11T21:16:09.423Z,18.10
2018-10-11T21:18:38.016Z,18.10
2018-10-11T21:21:07.494Z,18.00
2018-10-11T21:23:37.859Z,18.00
2018-10-11T21:26:08.420Z,18.10
2018-10-11T21:28:39.193Z,18.00
2018-10-11T21:31:07.747Z,18.00
2018-10-11T21:33:38.440Z,17.90
2018-10-11T21:36:10.481Z,17.90
2018-10-11T21:38:41.039Z,17.80
2018-10-11T21:41:09.588Z,17.80
2018-10-11T21:43:39.338Z,17.90
2018-10-11T21:46:08.064Z,18.00
2018-10-11T21:48:39.579Z,18.10
2018-10-11T21:51:08.091Z,18.20
2018-10-11T21:53:36.899Z,18.20
2018-10-11T21:56:06.406Z,18.20
2018-10-11T21:58:37.943Z,18.20
2018-10-11T22:01:15.216Z,18.20
2018-10-11T22:03:44.831Z,18.10
2018-10-11T22:06:13.472Z,18.10
2018-10-11T22:08:47.800Z,18.10
2018-10-11T22:11:17.396Z,18.10
2018-10-11T22:13:45.936Z,17.90
2018-10-11T22:16:15.444Z,17.80
2018-10-11T22:18:43.987Z,17.70
2018-10-11T22:21:13.286Z,17.80
2018-10-11T22:23:43.556Z,17.70
2018-10-11T22:26:12.800Z,17.70
2018-10-11T22:28:42.448Z,17.70
2018-10-11T22:31:13.287Z,17.70
2018-10-11T22:33:43.847Z,17.80
2018-10-11T22:36:13.286Z,17.70
2018-10-11T22:38:43.028Z,17.80
2018-10-11T22:41:12.999Z,17.80
2018-10-11T22:43:43.674Z,17.80
2018-10-11T22:46:13.043Z,17.90
2018-10-11T22:48:42.563Z,17.80
2018-10-11T22:51:11.876Z,17.80
2018-10-11T22:53:40.467Z,17.90
2018-10-11T22:56:08.922Z,17.80
2018-10-11T22:58:37.483Z,17.80
2018-10-11T23:01:06.160Z,17.90
2018-10-11T23:03:34.703Z,17.90
2018-10-11T23:06:03.291Z,17.80
2018-10-11T23:08:33.788Z,17.70
2018-10-11T23:11:04.441Z,17.80
2018-10-11T23:13:33.040Z,17.80
2018-10-11T23:16:01.651Z,17.80
2018-10-11T23:18:31.341Z,18.00
2018-10-11T23:21:00.876Z,18.00
2018-10-11T23:23:31.872Z,17.90
2018-10-11T23:26:01.431Z,17.90
2018-10-11T23:28:33.215Z,17.80
2018-10-11T23:31:01.779Z,17.80
2018-10-11T23:33:31.353Z,17.80
2018-10-11T23:36:04.096Z,17.80
2018-10-11T23:38:32.778Z,17.80
2018-10-11T23:41:03.490Z,17.70
2018-10-11T23:43:32.133Z,17.90
2018-10-11T23:46:00.760Z,17.70
2018-10-11T23:48:29.371Z,17.80
2018-10-11T23:51:01.919Z,17.90
2018-10-11T23:53:30.461Z,18.00
2018-10-11T23:56:00.039Z,18.00
2018-10-11T23:58:29.597Z,18.10
